Time;durP1;ratioP1;P1;durP2;ratioP2;P2;SDS_P1;SDS_P2;PMS_P1;PMS_P2;Temp;Humidity;BMP_temperature;BMP_pressure;BME280_temperature;BME280_humidity;BME280_pressure;Samples;Min_cycle;Max_cycle;Signal;HPM_P1;HPM_P2
2022/11/16 00:01:22;;;;;;;7.22;6.45;;;;;;;13.07;100.00;99744.09;5259980;28;20079;-71
2022/11/16 00:03:56;;;;;;;8.10;6.90;;;;;;;13.06;100.00;99734.53;5278808;28;20025;-71
2022/11/16 00:06:27;;;;;;;7.78;6.97;;;;;;;13.10;100.00;99727.13;5278365;28;20099;-71
2022/11/16 00:12:00;;;;;;;7.35;6.40;;;;;;;13.18;100.00;99739.41;5278358;28;20518;-71
2022/11/16 00:14:34;;;;;;;7.40;6.60;;;;;;;13.03;100.00;99737.53;5277932;28;20101;-71
2022/11/16 00:17:05;;;;;;;8.15;6.43;;;;;;;13.03;100.00;99745.44;5276410;28;20351;-71
2022/11/16 00:19:36;;;;;;;8.20;7.38;;;;;;;12.98;100.00;99741.66;5277788;28;20031;-71
2022/11/16 00:22:08;;;;;;;9.32;7.03;;;;;;;13.01;100.00;99742.13;5278339;28;20031;-71
2022/11/16 00:24:39;;;;;;;7.72;6.95;;;;;;;13.01;100.00;99738.69;5277517;28;20040;-71
2022/11/16 00:27:10;;;;;;;7.97;6.97;;;;;;;12.99;100.00;99746.75;5260327;28;20033;-71
2022/11/16 00:29:41;;;;;;;7.95;6.72;;;;;;;12.98;100.00;99744.28;5277488;28;20119;-71
2022/11/16 00:32:13;;;;;;;7.55;6.70;;;;;;;13.02;100.00;99732.44;5276319;28;20162;-71
2022/11/16 00:34:44;;;;;;;6.75;6.05;;;;;;;13.01;100.00;99731.63;5277807;28;20024;-71
2022/11/16 00:37:15;;;;;;;7.97;7.00;;;;;;;13.01;100.00;99722.91;5277851;28;20024;-71
2022/11/16 00:39:46;;;;;;;8.25;6.68;;;;;;;13.01;100.00;99712.41;5277712;28;20093;-71
2022/11/16 00:42:18;;;;;;;6.85;6.15;;;;;;;12.99;100.00;99707.31;5277273;28;20508;-71
2022/11/16 00:44:49;;;;;;;7.00;6.32;;;;;;;12.97;100.00;99709.31;5277534;28;20044;-71
2022/11/16 00:47:21;;;;;;;7.80;6.43;;;;;;;12.96;100.00;99712.94;5277389;28;20016;-71
2022/11/16 00:49:52;;;;;;;6.82;6.15;;;;;;;12.97;100.00;99737.41;5276482;28;20093;-71
2022/11/16 00:52:23;;;;;;;8.32;6.47;;;;;;;12.97;100.00;99730.34;5277442;28;20389;-71
2022/11/16 00:54:55;;;;;;;8.23;6.18;;;;;;;13.02;100.00;99732.44;5277273;28;20465;-71
2022/11/16 00:57:27;;;;;;;7.53;5.88;;;;;;;13.02;100.00;99724.56;5277630;28;20028;-71
2022/11/16 00:59:58;;;;;;;7.13;6.43;;;;;;;13.03;100.00;99728.81;5258870;28;20035;-71
2022/11/16 01:02:29;;;;;;;7.72;6.13;;;;;;;13.00;100.00;99716.03;5277221;28;20082;-71
2022/11/16 01:05:00;;;;;;;6.55;5.95;;;;;;;13.01;100.00;99715.03;5258718;28;20108;-71
2022/11/16 01:07:33;;;;;;;7.30;6.20;;;;;;;13.06;100.00;99721.41;5276900;28;20397;-71
2022/11/16 01:10:09;;;;;;;6.32;5.63;;;;;;;13.05;100.00;99725.03;5276256;28;20099;-71
2022/11/16 01:12:41;;;;;;;6.32;5.53;;;;;;;13.08;100.00;99708.91;5277314;28;20466;-71
2022/11/16 01:15:13;;;;;;;7.35;6.32;;;;;;;13.02;100.00;99708.78;5276742;28;20034;-71
2022/11/16 01:17:44;;;;;;;7.18;5.88;;;;;;;12.98;100.00;99705.66;5277037;28;20023;-71
2022/11/16 01:20:18;;;;;;;6.25;5.65;;;;;;;13.01;100.00;99707.97;5276853;28;20020;-71
2022/11/16 01:22:49;;;;;;;6.18;5.53;;;;;;;12.98;100.00;99695.16;5276976;28;20120;-71
2022/11/16 01:25:21;;;;;;;6.30;5.43;;;;;;;13.02;100.00;99700.88;5276534;28;20115;-71
2022/11/16 01:27:52;;;;;;;5.78;5.20;;;;;;;13.05;100.00;99695.28;5276497;28;20436;-71
2022/11/16 01:30:23;;;;;;;6.10;5.47;;;;;;;13.05;100.00;99695.28;5258537;28;20029;-71
2022/11/16 01:32:54;;;;;;;6.65;5.55;;;;;;;13.07;100.00;99694.13;5277140;28;20115;-71
2022/11/16 01:35:26;;;;;;;6.22;5.50;;;;;;;13.08;100.00;99687.88;5276105;28;20062;-71
2022/11/16 01:37:57;;;;;;;5.82;5.22;;;;;;;13.14;100.00;99688.97;5277046;28;20031;-71
2022/11/16 01:40:28;;;;;;;5.80;5.20;;;;;;;13.07;100.00;99680.97;5275966;28;20114;-71
2022/11/16 01:42:59;;;;;;;6.43;5.45;;;;;;;13.06;100.00;99686.41;5277385;28;20044;-71
2022/11/16 01:45:40;;;;;;;6.55;5.50;;;;;;;13.18;100.00;99681.53;5277042;28;20032;-71
2022/11/16 01:48:19;;;;;;;5.95;5.32;;;;;;;13.15;100.00;99691.44;5276666;28;20059;-71
2022/11/16 01:50:52;;;;;;;7.45;5.28;;;;;;;13.06;100.00;99692.47;5275338;28;20032;-71
2022/11/16 01:53:24;;;;;;;7.28;5.57;;;;;;;13.08;100.00;99687.88;5276650;28;20020;-71
2022/11/16 01:55:55;;;;;;;6.22;5.18;;;;;;;13.07;100.00;99690.69;5276833;28;20473;-71
2022/11/16 01:58:27;;;;;;;8.95;5.93;;;;;;;13.10;100.00;99692.94;5276322;28;20029;-71
2022/11/16 02:00:58;;;;;;;7.53;6.07;;;;;;;13.12;100.00;99696.22;5258368;28;20480;-71
2022/11/16 02:03:29;;;;;;;8.75;5.70;;;;;;;13.12;100.00;99693.59;5276469;28;20032;-71
2022/11/16 02:06:27;;;;;;;6.85;6.03;;;;;;;13.29;100.00;99684.63;5276012;28;20060;-71
2022/11/16 02:09:52;;;;;;;7.00;5.93;;;;;;;13.39;100.00;99690.47;5275214;28;20028;-71
2022/11/16 02:12:46;;;;;;;7.40;6.45;;;;;;;13.14;100.00;99681.94;5276041;28;20394;-71
2022/11/16 02:15:31;;;;;;;6.65;6.00;;;;;;;13.22;100.00;99688.09;5265670;28;20055;-71
2022/11/16 02:18:24;;;;;;;6.55;5.93;;;;;;;13.43;100.00;99679.59;5274673;28;20024;-71
2022/11/16 02:21:11;;;;;;;8.52;6.07;;;;;;;13.34;100.00;99676.22;5279694;28;20107;-71
2022/11/16 02:23:54;;;;;;;7.30;6.20;;;;;;;13.15;100.00;99680.91;5279776;28;20056;-71
2022/11/16 02:26:50;;;;;;;7.57;6.22;;;;;;;13.41;100.00;99676.31;5280476;28;20029;-70
2022/11/16 02:29:29;;;;;;;7.13;6.43;;;;;;;13.26;100.00;99674.47;5279956;28;20033;-71
2022/11/16 02:32:11;;;;;;;7.30;5.38;;;;;;;13.33;100.00;99685.09;5280625;28;20052;-71
2022/11/16 02:35:02;;;;;;;6.38;5.47;;;;;;;13.35;100.00;99683.09;5279694;28;20039;-71
2022/11/16 02:37:38;;;;;;;5.80;5.18;;;;;;;13.19;100.00;99678.75;5279947;28;20031;-71
2022/11/16 02:40:13;;;;;;;5.25;4.63;;;;;;;13.14;100.00;99688.97;5295975;22;20020;-76
2022/11/16 02:42:56;;;;;;;6.93;4.80;;;;;;;13.23;100.00;99681.84;5262608;28;20029;-77
2022/11/16 02:45:32;;;;;;;5.07;4.25;;;;;;;13.20;100.00;99683.03;5266085;28;20037;-77
2022/11/16 02:48:10;;;;;;;4.88;4.38;;;;;;;13.22;100.00;99682.84;5268130;28;20082;-77
2022/11/16 02:50:42;;;;;;;5.10;4.28;;;;;;;13.12;100.00;99683.91;5262900;28;20033;-77
2022/11/16 02:53:14;;;;;;;5.03;4.53;;;;;;;13.13;100.00;99696.03;5260998;28;20041;-77
2022/11/16 02:55:45;;;;;;;4.85;3.90;;;;;;;13.10;100.00;99701.66;5261950;28;20032;-77
2022/11/16 02:58:24;;;;;;;5.68;4.30;;;;;;;13.15;100.00;99704.59;5261576;28;20071;-77
2022/11/16 03:01:01;;;;;;;5.40;3.97;;;;;;;13.10;100.00;99700.81;5254295;28;20469;-77
2022/11/16 03:03:52;;;;;;;5.38;4.20;;;;;;;13.25;100.00;99691.22;5252374;28;20025;-77
2022/11/16 03:06:27;;;;;;;6.05;3.67;;;;;;;13.08;100.00;99689.69;5251698;28;20038;-77
2022/11/16 03:09:09;;;;;;;4.40;3.50;;;;;;;13.11;100.00;99691.97;5254874;28;20060;-77
2022/11/16 03:11:58;;;;;;;4.70;3.10;;;;;;;13.01;100.00;99696.63;5251560;28;20421;-77
2022/11/16 03:14:44;;;;;;;4.05;2.90;;;;;;;13.07;100.00;99695.94;5253576;28;20031;-77
2022/11/16 03:17:28;;;;;;;4.78;3.10;;;;;;;13.03;100.00;99698.09;5256011;28;20476;-77
2022/11/16 03:20:07;;;;;;;3.65;2.88;;;;;;;12.90;100.00;99689.94;5255348;28;20025;-76
2022/11/16 03:22:45;;;;;;;4.30;2.90;;;;;;;12.91;100.00;99700.28;5255151;28;20125;-77
2022/11/16 03:25:18;;;;;;;3.63;2.67;;;;;;;12.77;100.00;99705.47;5250064;28;20104;-77
2022/11/16 03:28:28;;;;;;;3.42;2.53;;;;;;;12.85;100.00;99706.25;5251872;28;20028;-77
2022/11/16 03:31:18;;;;;;;4.72;2.30;;;;;;;12.89;100.00;99706.72;5229145;28;20099;-77
2022/11/16 03:33:54;;;;;;;3.00;1.85;;;;;;;12.65;100.00;99702.38;5255626;28;20049;-77
2022/11/16 03:36:40;;;;;;;3.67;2.08;;;;;;;12.75;100.00;99710.06;5267863;28;20027;-77
2022/11/16 03:39:20;;;;;;;3.38;1.65;;;;;;;12.61;100.00;99707.19;5255188;28;20401;-77
2022/11/16 03:41:53;;;;;;;2.05;1.40;;;;;;;12.44;100.00;99707.44;5252644;28;20081;-77
2022/11/16 03:44:25;;;;;;;2.97;1.60;;;;;;;12.45;100.00;99715.13;5252038;28;20025;-77
2022/11/16 03:46:57;;;;;;;2.47;1.38;;;;;;;12.43;100.00;99722.38;5250220;28;20386;-77
2022/11/16 03:49:29;;;;;;;3.13;1.33;;;;;;;12.34;100.00;99711.06;5245554;28;20030;-77
2022/11/16 03:52:01;;;;;;;1.98;1.25;;;;;;;12.38;100.00;99729.91;5247212;28;20114;-77
2022/11/16 03:54:32;;;;;;;1.90;1.30;;;;;;;12.34;100.00;99726.00;5246768;28;20713;-77
2022/11/16 03:57:03;;;;;;;3.05;1.88;;;;;;;12.29;100.00;99730.94;5254620;28;20241;-77
2022/11/16 03:59:35;;;;;;;3.25;1.40;;;;;;;12.29;100.00;99744.06;5246866;28;20593;-76
2022/11/16 04:02:06;;;;;;;2.50;1.70;;;;;;;12.26;100.00;99733.91;5249915;28;20028;-77
2022/11/16 04:24:39;;;;;;;4.65;1.65;;;;;;;12.09;100.00;99746.25;5246502;28;20064;-76
2022/11/16 04:30:04;;;;;;;3.70;1.95;;;;;;;12.02;100.00;99759.22;5245698;28;20064;-76
2022/11/16 04:38:15;;;;;;;3.85;1.77;;;;;;;11.91;100.00;99747.25;5245919;28;20025;-76
2022/11/16 04:40:46;;;;;;;4.13;2.17;;;;;;;11.92;100.00;99750.69;5248578;28;20121;-76
2022/11/16 04:43:18;;;;;;;4.43;2.13;;;;;;;11.87;100.00;99751.19;5243820;28;20033;-76
2022/11/16 04:48:43;;;;;;;4.90;1.92;;;;;;;11.79;100.00;99758.22;5220464;28;20033;-76
2022/11/16 04:51:14;;;;;;;5.90;2.30;;;;;;;11.77;100.00;99763.63;5247539;28;20037;-76
2022/11/16 04:53:46;;;;;;;3.70;2.40;;;;;;;11.79;100.00;99771.34;5242292;28;20025;-76
2022/11/16 04:56:17;;;;;;;4.88;2.17;;;;;;;11.75;100.00;99765.59;5246944;28;20037;-76
2022/11/16 04:58:48;;;;;;;4.18;2.08;;;;;;;11.74;100.00;99778.88;5241699;28;20025;-76
2022/11/16 05:02:06;;;;;;;5.30;2.17;;;;;;;11.73;100.00;99774.63;5240423;28;20098;-76
2022/11/16 05:04:11;;;;;;;5.20;2.10;;;;;;;11.71;100.00;99785.28;5243126;28;20345;-76
2022/11/16 05:06:42;;;;;;;5.80;2.42;;;;;;;11.67;100.00;99786.59;5239701;28;20112;-76
2022/11/16 05:09:14;;;;;;;4.93;2.20;;;;;;;11.68;100.00;99786.41;5246419;28;20029;-76
2022/11/16 05:11:45;;;;;;;5.60;2.30;;;;;;;11.64;100.00;99777.25;5241686;28;20033;-76
2022/11/16 05:14:16;;;;;;;4.60;2.15;;;;;;;11.63;100.00;99780.00;5243529;28;20029;-76
2022/11/16 05:16:48;;;;;;;5.78;2.30;;;;;;;11.61;100.00;99782.81;5247599;28;20063;-76
2022/11/16 05:22:09;;;;;;;5.47;2.20;;;;;;;11.52;100.00;99786.41;5240832;28;20045;-76
2022/11/16 05:24:40;;;;;;;8.90;2.50;;;;;;;11.49;100.00;99783.28;5247758;28;20029;-76
2022/11/16 05:27:15;;;;;;;6.55;2.42;;;;;;;11.51;100.00;99779.50;5244543;28;20021;-76
2022/11/16 05:29:48;;;;;;;5.32;2.30;;;;;;;11.43;100.00;99774.25;5241635;28;20104;-76
2022/11/16 05:32:21;;;;;;;5.88;2.92;;;;;;;11.42;100.00;99772.63;5240903;28;20028;-76
2022/11/16 05:34:52;;;;;;;4.97;2.55;;;;;;;11.42;100.00;99767.38;5243695;28;20029;-76
2022/11/16 05:37:25;;;;;;;5.35;2.42;;;;;;;11.26;100.00;99770.78;5243867;28;20477;-76
2022/11/16 05:39:56;;;;;;;4.80;2.50;;;;;;;11.25;100.00;99766.53;5246731;28;20025;-76
2022/11/16 05:42:28;;;;;;;6.18;2.60;;;;;;;11.17;100.00;99766.50;5242116;28;20433;-76
2022/11/16 05:44:59;;;;;;;4.80;2.53;;;;;;;11.16;100.00;99778.78;5243272;28;20057;-76
2022/11/16 05:47:30;;;;;;;3.58;2.20;;;;;;;11.17;100.00;99785.69;5243455;28;20505;-76
2022/11/16 05:50:02;;;;;;;5.70;2.67;;;;;;;11.16;100.00;99783.22;5242729;28;20018;-76
2022/11/16 05:52:33;;;;;;;5.82;2.83;;;;;;;11.11;100.00;99785.50;5241462;28;20053;-76
2022/11/16 05:55:05;;;;;;;5.03;2.70;;;;;;;11.04;100.00;99787.94;5243031;28;20432;-76
2022/11/16 05:57:36;;;;;;;8.57;3.13;;;;;;;10.99;100.00;99786.78;5240447;28;20482;-76
2022/11/16 06:00:08;;;;;;;8.07;2.92;;;;;;;10.96;100.00;99787.91;5246684;28;20025;-76
2022/11/16 06:02:39;;;;;;;9.00;2.97;;;;;;;10.88;100.00;99786.09;5241836;28;20059;-76
2022/11/16 06:05:10;;;;;;;3.58;2.58;;;;;;;10.96;100.00;99803.63;5244043;28;20120;-76
2022/11/16 06:07:42;;;;;;;6.57;3.10;;;;;;;10.90;100.00;99801.63;5245901;28;20086;-76
2022/11/16 06:10:13;;;;;;;8.10;3.38;;;;;;;10.85;100.00;99794.25;5242876;28;20029;-76
2022/11/16 06:12:44;;;;;;;8.85;3.90;;;;;;;10.85;100.00;99798.69;5242133;28;20025;-76
2022/11/16 06:15:15;;;;;;;9.23;3.92;;;;;;;10.81;100.00;99800.78;5237739;28;20028;-76
2022/11/16 06:17:47;;;;;;;7.55;3.72;;;;;;;10.76;100.00;99792.59;5244079;28;20037;-76
2022/11/16 06:20:18;;;;;;;7.32;3.63;;;;;;;10.78;100.00;99801.09;5238860;28;20029;-76
2022/11/16 06:22:49;;;;;;;8.85;3.40;;;;;;;10.71;100.00;99803.50;5239004;28;20114;-76
2022/11/16 06:25:21;;;;;;;9.50;3.60;;;;;;;10.69;100.00;99809.91;5241515;28;20386;-76
2022/11/16 06:27:52;;;;;;;6.75;3.40;;;;;;;10.62;100.00;99807.09;5249018;28;20477;-76
2022/11/16 06:30:24;;;;;;;9.77;3.80;;;;;;;10.59;100.00;99817.03;5248915;28;20025;-76
2022/11/16 06:32:55;;;;;;;9.52;4.13;;;;;;;10.58;100.00;99831.13;5244954;28;20083;-76
2022/11/16 06:35:26;;;;;;;5.38;3.15;;;;;;;10.55;100.00;99827.00;5240368;28;20079;-76
2022/11/16 06:37:57;;;;;;;6.75;3.03;;;;;;;10.55;100.00;99831.44;5241325;28;20033;-76
2022/11/16 06:40:29;;;;;;;7.15;3.38;;;;;;;10.40;100.00;99834.59;5240850;28;20520;-76
2022/11/16 06:43:00;;;;;;;8.00;3.28;;;;;;;10.33;100.00;99822.28;5243582;28;20052;-76
2022/11/16 06:45:31;;;;;;;5.88;3.03;;;;;;;10.33;100.00;99824.91;5244604;28;20091;-76
2022/11/16 06:48:02;;;;;;;5.15;2.67;;;;;;;10.32;100.00;99831.13;5241777;28;20033;-76
2022/11/16 06:50:34;;;;;;;8.88;3.47;;;;;;;10.29;100.00;99841.88;5240856;28;20025;-76
2022/11/16 06:53:05;;;;;;;7.63;3.85;;;;;;;10.22;100.00;99834.59;5242485;28;20072;-76
2022/11/16 06:55:36;;;;;;;6.85;3.45;;;;;;;10.24;100.00;99842.31;5243682;28;20041;-77
2022/11/16 06:58:08;;;;;;;6.93;2.92;;;;;;;10.10;100.00;99819.31;5245137;28;20037;-77
2022/11/16 07:00:39;;;;;;;8.45;3.33;;;;;;;10.19;100.00;99850.63;5239956;28;20020;-77
2022/11/16 07:03:10;;;;;;;9.05;3.13;;;;;;;10.14;100.00;99839.78;5237278;28;20405;-76
2022/11/16 07:05:41;;;;;;;7.03;3.47;;;;;;;10.17;100.00;99847.34;5241981;28;20095;-76
2022/11/16 07:08:13;;;;;;;9.18;3.42;;;;;;;10.13;100.00;99843.38;5259194;28;20059;-77
2022/11/16 07:10:44;;;;;;;6.60;3.17;;;;;;;10.13;100.00;99851.22;5242914;28;20025;-77
2022/11/16 07:13:15;;;;;;;10.35;3.60;;;;;;;10.11;100.00;99847.94;5250161;28;20032;-77
2022/11/16 07:15:46;;;;;;;9.48;3.50;;;;;;;10.11;100.00;99861.03;5243973;28;20029;-77
2022/11/16 07:18:18;;;;;;;11.02;2.90;;;;;;;10.09;100.00;99862.16;5246015;28;20047;-76
2022/11/16 07:20:49;;;;;;;6.82;3.10;;;;;;;10.12;100.00;99862.69;5240283;28;20372;-76
2022/11/16 07:23:20;;;;;;;6.82;3.38;;;;;;;10.14;100.00;99865.13;5237381;28;20376;-76
2022/11/16 07:25:51;;;;;;;10.65;3.55;;;;;;;10.12;100.00;99877.56;5237998;28;20467;-77
2022/11/16 07:28:23;;;;;;;7.78;3.38;;;;;;;10.07;100.00;99877.19;5235429;28;20391;-76
2022/11/16 07:30:59;;;;;;;10.07;4.18;;;;;;;10.05;100.00;99866.88;5241360;28;20090;-77
2022/11/16 07:33:31;;;;;;;9.55;4.72;;;;;;;10.03;100.00;99868.81;5249671;28;20021;-77
2022/11/16 07:36:13;;;;;;;14.32;5.65;;;;;;;10.24;100.00;99881.59;5241705;28;20036;-76
2022/11/16 07:38:44;;;;;;;11.88;5.75;;;;;;;10.04;100.00;99886.16;5244658;28;20151;-76
2022/11/16 07:41:18;;;;;;;13.07;5.70;;;;;;;10.13;100.00;99884.44;5244500;28;20120;-76
2022/11/16 07:43:50;;;;;;;9.88;5.55;;;;;;;10.03;100.00;99881.06;5242945;28;20509;-77
2022/11/16 07:46:22;;;;;;;15.27;6.38;;;;;;;9.98;100.00;99877.13;5240691;28;20033;-77
2022/11/16 07:48:53;;;;;;;12.40;5.95;;;;;;;9.98;100.00;99886.75;5243121;28;20044;-77
2022/11/16 07:51:24;;;;;;;13.68;6.55;;;;;;;10.02;100.00;99889.91;5246997;28;20108;-76
2022/11/16 07:53:56;;;;;;;13.00;6.18;;;;;;;10.07;100.00;99892.88;5247908;28;20037;-77
2022/11/16 07:56:27;;;;;;;14.88;6.40;;;;;;;10.09;100.00;99899.63;5248915;28;20068;-76
2022/11/16 07:58:58;;;;;;;16.05;7.93;;;;;;;10.09;100.00;99898.81;5245490;28;20075;-77
2022/11/16 08:01:29;;;;;;;10.43;7.05;;;;;;;10.07;100.00;99900.72;5245151;28;20038;-77
2022/11/16 08:04:01;;;;;;;13.85;5.93;;;;;;;10.08;100.00;99903.22;5248815;28;20033;-77
2022/11/16 08:06:32;;;;;;;17.58;7.68;;;;;;;10.06;100.00;99910.38;5246276;28;20401;-76
2022/11/16 08:09:04;;;;;;;14.07;6.10;;;;;;;10.09;100.00;99911.88;5247163;28;20033;-76
2022/11/16 08:11:35;;;;;;;10.93;5.28;;;;;;;10.11;100.00;99908.13;5246737;28;20080;-76
2022/11/16 08:14:06;;;;;;;9.88;4.53;;;;;;;10.11;100.00;99904.69;5245288;28;20032;-77
2022/11/16 08:16:37;;;;;;;11.25;3.85;;;;;;;10.09;100.00;99902.25;5247841;28;20029;-77
2022/11/16 08:19:09;;;;;;;11.82;3.80;;;;;;;10.11;100.00;99907.31;5246998;28;20025;-77
2022/11/16 08:21:40;;;;;;;14.35;4.38;;;;;;;10.14;100.00;99914.88;5243977;28;20082;-76
2022/11/16 08:24:11;;;;;;;9.98;3.58;;;;;;;10.08;100.00;99897.16;5239742;28;20025;-76
2022/11/16 08:26:43;;;;;;;10.02;3.40;;;;;;;10.16;100.00;99912.94;5239325;28;20052;-77
2022/11/16 08:29:14;;;;;;;10.50;3.50;;;;;;;10.18;100.00;99909.19;5244851;28;20017;-76
2022/11/16 08:31:46;;;;;;;7.88;2.90;;;;;;;10.17;100.00;99906.72;5245164;28;20025;-77
2022/11/16 08:34:18;;;;;;;8.52;2.58;;;;;;;10.22;100.00;99909.69;5246240;28;20053;-77
2022/11/16 08:36:49;;;;;;;8.23;3.00;;;;;;;10.22;100.00;99912.31;5239436;28;20363;-76
2022/11/16 08:39:21;;;;;;;13.15;3.13;;;;;;;10.23;100.00;99895.66;5237323;28;20025;-77
2022/11/16 08:41:52;;;;;;;11.32;3.35;;;;;;;10.24;100.00;99903.34;5243270;28;20049;-78
2022/11/16 08:44:24;;;;;;;8.93;2.83;;;;;;;10.26;100.00;99903.22;5244080;28;20040;-78
2022/11/16 08:46:55;;;;;;;13.75;3.10;;;;;;;10.20;100.00;99898.56;5246869;28;20060;-78
2022/11/16 08:49:28;;;;;;;11.32;2.90;;;;;;;10.31;100.00;99908.84;5249684;28;20024;-78
2022/11/16 08:51:59;;;;;;;10.82;3.05;;;;;;;10.35;100.00;99915.41;5245201;28;20025;-78
2022/11/16 08:54:30;;;;;;;8.40;2.78;;;;;;;10.35;100.00;99910.19;5246276;28;20130;-79
2022/11/16 08:57:02;;;;;;;12.98;3.10;;;;;;;10.36;100.00;99911.00;5245530;28;20025;-78
2022/11/16 08:59:33;;;;;;;5.55;2.47;;;;;;;10.38;100.00;99915.13;5243728;28;20040;-78
2022/11/16 09:02:05;;;;;;;12.38;3.00;;;;;;;10.39;100.00;99913.31;5240828;28;20482;-79
2022/11/16 09:04:36;;;;;;;12.52;3.15;;;;;;;10.42;100.00;99915.66;5241386;28;20441;-78
2022/11/16 09:07:08;;;;;;;7.40;2.40;;;;;;;10.44;100.00;99919.72;5242798;28;20033;-79
2022/11/16 09:09:40;;;;;;;8.90;2.60;;;;;;;10.48;100.00;99920.25;5243333;28;20163;-78
2022/11/16 09:12:11;;;;;;;7.32;2.67;;;;;;;10.48;100.00;99912.41;5245720;28;20098;-78
2022/11/16 09:14:42;;;;;;;12.55;2.90;;;;;;;10.54;100.00;99924.06;5245618;28;20421;-78
2022/11/16 09:17:13;;;;;;;12.68;3.03;;;;;;;10.48;100.00;99921.06;5247271;28;20033;-78
2022/11/16 09:19:45;;;;;;;11.05;2.72;;;;;;;10.52;100.00;99918.97;5246629;28;20508;-78
2022/11/16 09:22:16;;;;;;;11.20;3.45;;;;;;;10.55;100.00;99923.91;5241300;28;20168;-78
2022/11/16 09:24:48;;;;;;;9.75;2.58;;;;;;;10.51;100.00;99916.53;5248608;28;20025;-78
2022/11/16 09:27:19;;;;;;;10.63;2.90;;;;;;;10.62;100.00;99932.00;5242341;28;20029;-78
2022/11/16 09:29:50;;;;;;;15.38;3.22;;;;;;;10.64;100.00;99930.84;5244166;28;20017;-78
2022/11/16 09:32:21;;;;;;;8.80;2.53;;;;;;;10.67;100.00;99932.34;5247005;28;20021;-78
2022/11/16 09:34:53;;;;;;;8.50;2.10;;;;;;;10.73;100.00;99929.13;5245672;28;20048;-78
2022/11/16 09:37:24;;;;;;;9.98;2.80;;;;;;;10.77;100.00;99924.41;5243697;28;20086;-78
2022/11/16 09:39:57;;;;;;;8.18;2.35;;;;;;;10.80;100.00;99930.16;5244304;28;20021;-78
2022/11/16 09:43:04;;;;;;;8.48;2.20;;;;;;;11.09;100.00;99929.00;5239871;28;20037;-78
2022/11/16 09:45:40;;;;;;;11.13;2.20;;;;;;;10.99;100.00;99925.69;5240170;28;20380;-78
2022/11/16 09:48:14;;;;;;;7.38;2.10;;;;;;;11.01;100.00;99934.19;5246064;28;20437;-78
2022/11/16 09:50:53;;;;;;;9.48;2.65;;;;;;;11.04;100.00;99932.09;5241385;28;20033;-78
2022/11/16 09:53:56;;;;;;;9.63;2.67;;;;;;;11.29;100.00;99927.81;5247323;28;20029;-78
2022/11/16 09:56:34;;;;;;;8.50;2.50;;;;;;;11.24;100.00;99939.72;5244059;28;20029;-78
2022/11/16 09:59:08;;;;;;;10.45;2.60;;;;;;;11.28;100.00;99941.88;5242686;28;20025;-78
2022/11/16 10:01:54;;;;;;;8.00;2.50;;;;;;;11.35;100.00;99935.03;5245151;28;20040;-78
2022/11/16 10:04:42;;;;;;;9.35;2.65;;;;;;;11.44;100.00;99938.53;5242477;28;20036;-78
2022/11/16 10:07:18;;;;;;;10.43;2.22;;;;;;;11.33;100.00;99938.81;5244691;28;20071;-78
2022/11/16 10:09:50;;;;;;;7.85;2.63;;;;;;;11.38;100.00;99937.34;5241554;28;20024;-77
2022/11/16 10:12:36;;;;;;;8.18;2.60;;;;;;;11.50;100.00;99931.81;5241717;28;20026;-78
2022/11/16 10:15:30;;;;;;;11.30;2.65;;;;;;;11.52;100.00;99933.31;5244055;28;20416;-78
2022/11/16 10:18:05;;;;;;;7.30;1.92;;;;;;;11.59;100.00;99920.34;5244710;28;20089;-78
2022/11/16 10:21:06;;;;;;;10.18;2.05;;;;;;;11.91;100.00;99935.41;5246405;28;20017;-78
2022/11/16 10:23:59;;;;;;;7.13;2.17;;;;;;;11.78;100.00;99935.00;5228985;28;20498;-78
2022/11/16 10:27:18;;;;;;;7.32;2.38;;;;;;;12.05;100.00;99926.09;5239319;28;20033;-78
2022/11/16 10:30:00;;;;;;;6.75;2.05;;;;;;;12.00;100.00;99929.19;5241773;28;20584;-78
2022/11/16 10:32:36;;;;;;;8.05;2.38;;;;;;;11.98;100.00;99935.59;5247819;28;20032;-77
2022/11/16 10:35:10;;;;;;;9.98;2.15;;;;;;;12.09;100.00;99932.66;5246002;28;20100;-78
2022/11/16 10:37:50;;;;;;;6.45;2.22;;;;;;;12.18;100.00;99929.03;5244339;28;20032;-78
2022/11/16 10:40:24;;;;;;;8.77;1.92;;;;;;;12.18;100.00;99927.25;5244823;28;20397;-78
2022/11/16 10:43:13;;;;;;;6.63;2.17;;;;;;;12.40;100.00;99936.28;5251143;28;20079;-78
2022/11/16 10:46:07;;;;;;;7.75;2.30;;;;;;;12.32;100.00;99930.22;5249194;28;20114;-78
2022/11/16 10:49:05;;;;;;;8.07;1.83;;;;;;;12.49;100.00;99929.22;5240076;28;20478;-78
2022/11/16 10:51:37;;;;;;;6.35;2.00;;;;;;;12.28;100.00;99921.03;5249856;28;20025;-77
2022/11/16 10:54:16;;;;;;;5.47;1.60;;;;;;;12.33;100.00;99913.47;5252524;28;20031;-77
2022/11/16 10:56:54;;;;;;;11.57;2.13;;;;;;;12.39;100.00;99925.94;5248493;28;20035;-77
2022/11/16 10:59:47;;;;;;;8.48;1.70;;;;;;;12.40;100.00;99930.22;5245532;28;20029;-78
2022/11/16 11:02:35;;;;;;;7.38;1.92;;;;;;;12.34;100.00;99926.41;5246434;28;20541;-78
2022/11/16 11:05:13;;;;;;;8.38;1.90;;;;;;;12.22;100.00;99933.00;5246510;28;20034;-77
2022/11/16 11:07:58;;;;;;;7.25;1.90;;;;;;;12.49;100.00;99916.06;5246336;28;20026;-78
2022/11/16 11:10:35;;;;;;;7.60;1.75;;;;;;;12.37;100.00;99915.59;5248844;28;20060;-78
2022/11/16 11:13:09;;;;;;;8.77;1.65;;;;;;;12.46;100.00;99915.59;5244692;28;20029;-78
2022/11/16 11:15:42;;;;;;;7.07;1.88;;;;;;;12.39;100.00;99920.69;5242838;28;20021;-78
2022/11/16 11:18:22;;;;;;;5.85;2.22;;;;;;;12.57;100.00;99925.75;5243073;28;20033;-78
2022/11/16 11:21:07;;;;;;;5.70;2.00;;;;;;;12.47;100.00;99922.50;5248422;28;20033;-78
2022/11/16 11:23:51;;;;;;;10.30;2.00;;;;;;;12.54;100.00;99911.16;5246669;28;20055;-78
2022/11/16 11:26:38;;;;;;;6.65;1.83;;;;;;;12.69;100.00;99920.97;5248792;28;20116;-78
2022/11/16 11:29:24;;;;;;;5.70;1.75;;;;;;;12.66;100.00;99914.28;5248048;28;20041;-78
2022/11/16 11:32:04;;;;;;;8.90;1.98;;;;;;;12.59;100.00;99908.03;5245886;28;20036;-78
2022/11/16 11:34:41;;;;;;;4.15;1.50;;;;;;;12.63;100.00;99909.34;5248005;28;20112;-78
2022/11/16 11:37:20;;;;;;;6.55;1.55;;;;;;;12.64;100.00;99910.97;5246748;28;20029;-78
2022/11/16 11:40:29;;;;;;;10.70;1.70;;;;;;;12.73;100.00;99904.75;5243288;28;20017;-79
2022/11/16 11:43:04;;;;;;;7.88;1.40;;;;;;;12.52;100.00;99901.81;5249946;28;20029;-78
2022/11/16 11:45:39;;;;;;;6.20;1.67;;;;;;;12.61;100.00;99900.78;5250548;28;20040;-78
2022/11/16 11:48:26;;;;;;;8.27;2.00;;;;;;;12.63;100.00;99898.84;5245728;28;20026;-78
2022/11/16 11:51:08;;;;;;;6.32;1.65;;;;;;;12.57;100.00;99897.69;5242839;28;20109;-78
2022/11/16 11:53:48;;;;;;;8.88;1.60;;;;;;;12.72;100.00;99889.94;5246220;28;20040;-78
2022/11/16 11:56:20;;;;;;;6.63;1.67;;;;;;;12.74;100.00;99887.97;5248509;28;20047;-78
2022/11/16 11:58:51;;;;;;;6.55;1.35;;;;;;;12.85;100.00;99871.84;5246837;28;20025;-76
2022/11/16 12:01:52;;;;;;;7.38;1.50;;;;;;;13.18;100.00;99868.28;5242180;28;20033;-76
2022/11/16 12:04:43;;;;;;;6.95;1.63;;;;;;;13.03;100.00;99874.25;5236664;28;20520;-76
2022/11/16 12:07:59;;;;;;;5.97;1.52;;;;;;;13.34;100.00;99878.78;5249302;28;20047;-76
2022/11/16 12:10:51;;;;;;;5.57;1.33;;;;;;;13.25;100.00;99872.72;5249366;28;20394;-76
2022/11/16 12:13:54;;;;;;;7.20;1.40;;;;;;;13.26;100.00;99860.38;5249019;28;20078;-76
2022/11/16 12:16:40;;;;;;;7.72;1.90;;;;;;;13.45;100.00;99859.97;5242653;28;20017;-77
2022/11/16 12:19:39;;;;;;;8.77;2.25;;;;;;;13.49;100.00;99853.38;5240745;28;20037;-76
2022/11/16 12:22:16;;;;;;;7.32;1.55;;;;;;;13.29;100.00;99850.34;5243955;28;20071;-77
2022/11/16 12:25:11;;;;;;;6.15;1.92;;;;;;;13.50;100.00;99849.75;5243772;28;20386;-77
2022/11/16 12:28:02;;;;;;;7.07;1.67;;;;;;;13.58;100.00;99844.44;5244105;28;20120;-76
2022/11/16 12:31:00;;;;;;;6.78;1.58;;;;;;;13.41;100.00;99849.94;5245797;28;20037;-77
2022/11/16 12:34:15;;;;;;;7.03;1.77;;;;;;;13.39;100.00;99843.06;5250229;28;20433;-77
2022/11/16 12:36:58;;;;;;;9.30;2.00;;;;;;;13.29;100.00;99839.81;5232306;28;20045;-77
2022/11/16 12:39:51;;;;;;;7.53;1.75;;;;;;;13.37;100.00;99833.69;5249960;28;20082;-77
2022/11/16 12:42:51;;;;;;;7.57;1.55;;;;;;;13.45;100.00;99832.81;5236369;28;20093;-77
2022/11/16 12:45:40;;;;;;;6.18;1.48;;;;;;;13.47;100.00;99812.44;5244563;28;20033;-76